Time;durP1;ratioP1;P1;durP2;ratioP2;P2;SDS_P1;SDS_P2;PMS_P1;PMS_P2;Temp;Humidity;BMP_temperature;BMP_pressure;BME280_temperature;BME280_humidity;BME280_pressure;Samples;Min_cycle;Max_cycle;Signal;HPM_P1;HPM_P2
2022/01/06 00:02:31;;;;;;;8.95;6.65;;;;;;;;;;6202545;23;20004;-78
2022/01/06 00:04:57;;;;;;;7.85;6.20;;;;;;;;;;6227490;23;20035;-76
2022/01/06 00:07:29;;;;;;;6.75;5.47;;;;;;;;;;6228822;23;20024;-76
2022/01/06 00:09:55;;;;;;;6.47;5.10;;;;;;;;;;6201439;23;20013;-76
2022/01/06 00:12:33;;;;;;;7.72;5.97;;;;;;;;;;6200570;23;20008;-78
2022/01/06 00:15:20;;;;;;;6.97;5.60;;;;;;;;;;6228353;23;20001;-78
2022/01/06 00:18:14;;;;;;;8.45;5.85;;;;;;;;;;6201440;23;20017;-77
2022/01/06 00:23:38;;;;;;;8.55;6.18;;;;;;;;;;6291173;22;20019;-77
2022/01/06 00:26:14;;;;;;;6.68;5.05;;;;;;;;;;6261164;22;20029;-77
2022/01/06 00:28:48;;;;;;;6.18;5.03;;;;;;;;;;6269132;22;20000;-79
2022/01/06 00:31:18;;;;;;;7.88;5.97;;;;;;;;;;6265263;22;20026;-78
2022/01/06 00:34:01;;;;;;;6.90;4.95;;;;;;;;;;6259866;22;20032;-77
2022/01/06 00:36:30;;;;;;;6.32;5.10;;;;;;;;;;6262131;22;20047;-77
2022/01/06 00:39:01;;;;;;;6.82;5.60;;;;;;;;;;6264069;22;20000;-78
2022/01/06 00:41:34;;;;;;;6.65;5.20;;;;;;;;;;6261214;22;20332;-77
2022/01/06 00:44:00;;;;;;;6.18;4.45;;;;;;;;;;6261139;22;20354;-77
2022/01/06 00:46:29;;;;;;;5.30;3.97;;;;;;;;;;6284600;22;20012;-75
2022/01/06 00:48:55;;;;;;;5.45;4.03;;;;;;;;;;6260966;22;20011;-76
2022/01/06 00:51:27;;;;;;;6.63;4.40;;;;;;;;;;6264486;22;20004;-78
2022/01/06 00:53:58;;;;;;;5.03;3.90;;;;;;;;;;6260853;22;20004;-77
2022/01/06 00:56:53;;;;;;;5.95;3.78;;;;;;;;;;6238555;23;20000;-77
2022/01/06 00:59:25;;;;;;;5.80;4.13;;;;;;;;;;6226744;23;20055;-78
2022/01/06 01:01:52;;;;;;;5.43;3.50;;;;;;;;;;6227787;23;20001;-77
2022/01/06 01:04:21;;;;;;;4.88;3.80;;;;;;;;;;6201995;23;20031;-77
2022/01/06 01:06:56;;;;;;;7.20;4.13;;;;;;;;;;6203663;23;20032;-76
2022/01/06 01:09:24;;;;;;;7.32;4.40;;;;;;;;;;6195309;23;20032;-77
2022/01/06 01:11:54;;;;;;;7.88;4.25;;;;;;;;;;6223650;23;20038;-77
2022/01/06 01:14:31;;;;;;;7.75;4.10;;;;;;;;;;6207051;23;20009;-76
2022/01/06 01:17:03;;;;;;;6.93;3.58;;;;;;;;;;6196624;23;20028;-78
2022/01/06 01:19:35;;;;;;;6.10;3.55;;;;;;;;;;6205175;23;20055;-76
2022/01/06 01:22:08;;;;;;;6.72;3.85;;;;;;;;;;6254538;22;20059;-77
2022/01/06 01:24:39;;;;;;;6.45;3.40;;;;;;;;;;6291063;22;19991;-78
2022/01/06 01:27:07;;;;;;;6.63;3.90;;;;;;;;;;6267918;22;20003;-78
2022/01/06 01:29:56;;;;;;;8.52;4.90;;;;;;;;;;6266894;22;20008;-78
2022/01/06 01:32:32;;;;;;;8.75;4.88;;;;;;;;;;6264747;22;20024;-77
2022/01/06 01:35:07;;;;;;;6.95;4.43;;;;;;;;;;6269243;22;20007;-77
2022/01/06 01:37:57;;;;;;;5.53;3.90;;;;;;;;;;6262610;22;20003;-78
2022/01/06 01:40:33;;;;;;;6.30;4.30;;;;;;;;;;6294901;22;20050;-77
2022/01/06 01:43:01;;;;;;;5.32;3.45;;;;;;;;;;6264313;22;20007;-77
2022/01/06 01:45:34;;;;;;;6.28;4.10;;;;;;;;;;6265409;22;20038;-77
2022/01/06 01:48:06;;;;;;;5.35;3.80;;;;;;;;;;6267782;22;20011;-76
2022/01/06 01:50:34;;;;;;;7.13;4.35;;;;;;;;;;6300996;22;20023;-76
2022/01/06 01:53:00;;;;;;;7.22;3.25;;;;;;;;;;6265089;22;19984;-75
2022/01/06 01:55:32;;;;;;;7.55;4.10;;;;;;;;;;6290015;22;20417;-76
2022/01/06 01:57:59;;;;;;;5.93;3.40;;;;;;;;;;6290892;22;20039;-75
2022/01/06 02:00:26;;;;;;;6.68;3.40;;;;;;;;;;6284259;22;20430;-75
2022/01/06 02:02:54;;;;;;;3.92;2.75;;;;;;;;;;6287142;22;19996;-76
2022/01/06 02:05:28;;;;;;;6.28;3.50;;;;;;;;;;6291386;22;20006;-76
2022/01/06 02:07:58;;;;;;;;;;;;;;;;;;6261994;22;20471;-76
2022/01/06 02:10:32;;;;;;;5.97;3.45;;;;;;;;;;6258537;22;20320;-76
2022/01/06 02:13:01;;;;;;;5.10;3.15;;;;;;;;;;6261547;22;19996;-75
2022/01/06 02:15:31;;;;;;;5.05;3.17;;;;;;;;;;6266384;22;20022;-78
2022/01/06 02:18:00;;;;;;;5.53;3.22;;;;;;;;;;6288807;22;19987;-77
2022/01/06 02:20:29;;;;;;;4.60;2.75;;;;;;;;;;6265622;22;20011;-77
2022/01/06 02:22:57;;;;;;;8.30;3.67;;;;;;;;;;6263301;22;20083;-76
2022/01/06 02:25:34;;;;;;;5.55;2.97;;;;;;;;;;6260850;22;20004;-77
2022/01/06 02:28:18;;;;;;;6.50;3.00;;;;;;;;;;6289808;22;20006;-78
2022/01/06 02:30:55;;;;;;;4.77;2.83;;;;;;;;;;6285915;22;20052;-77
2022/01/06 02:33:25;;;;;;;5.18;3.30;;;;;;;;;;6258182;22;20365;-78
2022/01/06 02:35:56;;;;;;;8.02;3.10;;;;;;;;;;6237072;22;20004;-78
2022/01/06 02:38:42;;;;;;;5.65;3.10;;;;;;;;;;6267493;22;20004;-77
2022/01/06 02:41:17;;;;;;;6.78;3.40;;;;;;;;;;6258620;22;20302;-77
2022/01/06 02:43:52;;;;;;;6.03;3.45;;;;;;;;;;6264654;22;20015;-78
2022/01/06 02:46:39;;;;;;;5.53;3.00;;;;;;;;;;6265432;22;20400;-78
2022/01/06 02:49:16;;;;;;;6.57;3.22;;;;;;;;;;6292615;22;20004;-77
2022/01/06 02:51:54;;;;;;;7.47;3.28;;;;;;;;;;6293800;22;20011;-78
2022/01/06 02:54:33;;;;;;;3.83;2.60;;;;;;;;;;6231398;23;19989;-78
2022/01/06 02:57:10;;;;;;;5.38;3.03;;;;;;;;;;6202520;22;20040;-78
2022/01/06 02:59:41;;;;;;;5.68;3.00;;;;;;;;;;6206319;23;20024;-78
2022/01/06 03:02:16;;;;;;;4.93;2.92;;;;;;;;;;6202357;23;19988;-77
2022/01/06 03:04:53;;;;;;;6.03;2.80;;;;;;;;;;6202229;23;20083;-77
2022/01/06 03:07:29;;;;;;;6.07;2.70;;;;;;;;;;6197371;23;20300;-77
2022/01/06 03:10:02;;;;;;;7.72;3.42;;;;;;;;;;6205222;23;20008;-77
2022/01/06 03:12:49;;;;;;;5.00;2.63;;;;;;;;;;6197093;23;20012;-77
2022/01/06 03:15:27;;;;;;;4.80;3.33;;;;;;;;;;6228862;23;19999;-77
2022/01/06 03:18:01;;;;;;;5.70;3.00;;;;;;;;;;6226091;22;20121;-76
2022/01/06 03:20:39;;;;;;;5.85;3.10;;;;;;;;;;6262373;22;20440;-77
2022/01/06 03:23:06;;;;;;;3.88;2.88;;;;;;;;;;6291594;22;19995;-77
2022/01/06 03:25:51;;;;;;;8.80;3.00;;;;;;;;;;6264859;22;19995;-78
2022/01/06 03:28:23;;;;;;;6.18;3.08;;;;;;;;;;6265176;22;20318;-80
2022/01/06 03:31:13;;;;;;;6.70;3.00;;;;;;;;;;6285542;22;20004;-78
2022/01/06 03:33:56;;;;;;;6.13;3.53;;;;;;;;;;6291516;22;20018;-77
2022/01/06 03:36:27;;;;;;;8.23;3.25;;;;;;;;;;6287928;22;19999;-77
2022/01/06 03:39:03;;;;;;;4.63;2.80;;;;;;;;;;6224463;23;20065;-78
2022/01/06 03:41:37;;;;;;;5.65;3.20;;;;;;;;;;6195253;23;20008;-77
2022/01/06 03:44:03;;;;;;;4.68;3.17;;;;;;;;;;6193106;23;20412;-77
2022/01/06 03:46:30;;;;;;;4.95;3.20;;;;;;;;;;6194879;23;20008;-75
2022/01/06 03:49:01;;;;;;;4.82;2.90;;;;;;;;;;6230121;23;20493;-75
2022/01/06 03:51:46;;;;;;;5.28;2.80;;;;;;;;;;6235607;23;19999;-76
2022/01/06 03:54:30;;;;;;;6.13;2.70;;;;;;;;;;6223982;23;20009;-76
2022/01/06 03:56:57;;;;;;;5.22;2.80;;;;;;;;;;6217973;23;20017;-76
2022/01/06 03:59:23;;;;;;;5.47;2.83;;;;;;;;;;6219467;23;20068;-76
2022/01/06 04:01:49;;;;;;;5.32;3.03;;;;;;;;;;6193447;23;19997;-76
2022/01/06 04:04:15;;;;;;;5.95;3.20;;;;;;;;;;6221748;23;20011;-74
2022/01/06 04:06:42;;;;;;;5.93;3.47;;;;;;;;;;6193435;23;20008;-75
2022/01/06 04:09:08;;;;;;;8.55;4.63;;;;;;;;;;6235098;22;20003;-76
2022/01/06 04:11:34;;;;;;;6.57;4.30;;;;;;;;;;6255958;22;20006;-76
2022/01/06 04:14:00;;;;;;;9.82;4.43;;;;;;;;;;6254432;22;20059;-75
2022/01/06 04:16:29;;;;;;;8.27;4.63;;;;;;;;;;6279533;22;20019;-71
2022/01/06 04:18:55;;;;;;;10.05;4.07;;;;;;;;;;6253924;22;20310;-75
2022/01/06 04:21:21;;;;;;;6.50;3.95;;;;;;;;;;6282284;22;20046;-74
2022/01/06 04:23:50;;;;;;;6.63;3.88;;;;;;;;;;6254368;22;20002;-75
2022/01/06 04:26:16;;;;;;;9.18;3.90;;;;;;;;;;6254333;22;20011;-75
2022/01/06 04:28:43;;;;;;;8.05;3.70;;;;;;;;;;6282580;22;20003;-76
2022/01/06 04:31:09;;;;;;;8.02;3.92;;;;;;;;;;6260791;22;20010;-77
2022/01/06 04:33:35;;;;;;;5.63;3.95;;;;;;;;;;6239664;22;20024;-77
2022/01/06 04:36:02;;;;;;;9.15;3.88;;;;;;;;;;6269800;22;20430;-77
2022/01/06 04:38:29;;;;;;;8.35;4.25;;;;;;;;;;6269605;22;19992;-76
2022/01/06 04:40:58;;;;;;;7.53;4.38;;;;;;;;;;6297303;22;20056;-77
2022/01/06 04:43:24;;;;;;;8.05;4.40;;;;;;;;;;6283834;22;20002;-76
2022/01/06 04:45:50;;;;;;;7.30;4.40;;;;;;;;;;6260653;22;20030;-76
2022/01/06 04:48:27;;;;;;;7.57;4.72;;;;;;;;;;6269002;22;20049;-76
2022/01/06 04:50:53;;;;;;;7.75;4.30;;;;;;;;;;6269697;22;20342;-77
2022/01/06 04:53:53;;;;;;;10.25;4.63;;;;;;;;;;6292517;22;20044;-77
2022/01/06 04:56:19;;;;;;;8.27;4.60;;;;;;;;;;6169827;23;20009;-76
2022/01/06 04:58:51;;;;;;;8.20;4.90;;;;;;;;;;6198333;23;20057;-77
2022/01/06 05:01:17;;;;;;;7.00;4.32;;;;;;;;;;6199947;23;20451;-76
2022/01/06 05:03:43;;;;;;;9.07;5.07;;;;;;;;;;6197396;23;19989;-76
2022/01/06 05:06:11;;;;;;;9.13;4.50;;;;;;;;;;6196050;23;20009;-76
2022/01/06 05:08:49;;;;;;;7.60;4.60;;;;;;;;;;6200063;23;20029;-77
2022/01/06 05:11:26;;;;;;;10.48;5.40;;;;;;;;;;6172565;23;20045;-76
2022/01/06 05:13:55;;;;;;;8.60;4.65;;;;;;;;;;6201969;23;20013;-76
2022/01/06 05:16:23;;;;;;;11.70;4.80;;;;;;;;;;6172864;23;20001;-77
2022/01/06 05:18:55;;;;;;;7.90;4.78;;;;;;;;;;6175196;23;20020;-77
2022/01/06 05:21:31;;;;;;;7.05;4.35;;;;;;;;;;6170582;23;20049;-76
2022/01/06 05:24:10;;;;;;;8.52;5.20;;;;;;;;;;6168424;23;20032;-76
2022/01/06 05:26:47;;;;;;;7.40;4.70;;;;;;;;;;6188513;22;20056;-76
2022/01/06 05:29:16;;;;;;;9.20;5.57;;;;;;;;;;6281533;22;20071;-77
2022/01/06 05:31:45;;;;;;;11.63;5.80;;;;;;;;;;6256346;22;20330;-76
2022/01/06 05:34:32;;;;;;;9.15;5.18;;;;;;;;;;6258820;22;20022;-77
2022/01/06 05:36:58;;;;;;;14.50;6.95;;;;;;;;;;6282722;22;20020;-76
2022/01/06 05:39:37;;;;;;;10.73;5.18;;;;;;;;;;6261937;22;20011;-77
2022/01/06 05:42:16;;;;;;;14.27;6.85;;;;;;;;;;6289759;22;20004;-77
2022/01/06 05:44:43;;;;;;;10.23;5.53;;;;;;;;;;6261121;22;20008;-77
2022/01/06 05:47:16;;;;;;;17.02;7.28;;;;;;;;;;6266083;22;20012;-77
2022/01/06 05:49:50;;;;;;;16.25;8.35;;;;;;;;;;6262448;22;20008;-76
2022/01/06 05:52:17;;;;;;;13.05;6.00;;;;;;;;;;6261561;22;20078;-76
2022/01/06 05:54:43;;;;;;;24.70;10.95;;;;;;;;;;6261715;22;20004;-77
2022/01/06 05:57:15;;;;;;;9.13;5.10;;;;;;;;;;6260339;22;20008;-77
2022/01/06 05:59:42;;;;;;;12.48;5.95;;;;;;;;;;6262181;22;20031;-76
2022/01/06 06:02:10;;;;;;;14.15;5.05;;;;;;;;;;6262369;22;20067;-77
2022/01/06 06:04:36;;;;;;;10.25;5.20;;;;;;;;;;6266227;22;20000;-78
2022/01/06 06:07:03;;;;;;;8.35;4.10;;;;;;;;;;6261935;22;20007;-76
2022/01/06 06:09:34;;;;;;;9.77;5.05;;;;;;;;;;6291030;22;19999;-76
2022/01/06 06:12:00;;;;;;;11.00;5.53;;;;;;;;;;6296619;22;20017;-76
2022/01/06 06:14:37;;;;;;;10.20;5.43;;;;;;;;;;6269256;22;20008;-76
2022/01/06 06:17:09;;;;;;;10.18;4.35;;;;;;;;;;6293730;22;20035;-76
2022/01/06 06:19:35;;;;;;;9.23;5.30;;;;;;;;;;6265574;22;20007;-74
2022/01/06 06:22:01;;;;;;;12.18;5.15;;;;;;;;;;6290444;22;20430;-76
2022/01/06 06:24:29;;;;;;;14.65;4.68;;;128.40;2252.80;;;;;;6271436;22;20004;-76
2022/01/06 06:27:00;;;;;;;9.68;4.30;;;128.30;2252.80;;;;;;6300839;22;20003;-77
2022/01/06 06:29:41;;;;;;;9.38;4.93;;;128.30;2252.80;;;;;;6292830;22;20000;-79
2022/01/06 06:32:07;;;;;;;8.32;4.95;;;128.10;2252.80;;;;;;6259645;22;20060;-77
2022/01/06 06:34:33;;;;;;;15.68;4.63;;;102.50;2227.20;;;;;;6290453;22;20012;-77
2022/01/06 06:36:59;;;;;;;9.25;4.53;;;128.00;2252.80;;;;;;6263950;22;19995;-76
2022/01/06 06:39:49;;;;;;;7.72;4.43;;;128.00;2252.80;;;;;;6269302;22;20091;-77
2022/01/06 06:42:25;;;;;;;9.90;4.63;;;128.00;2252.80;;;;;;6286590;22;20114;-78
2022/01/06 06:44:54;;;;;;;10.35;5.05;;;103.30;2227.20;;;;;;6260687;22;19988;-77
2022/01/06 06:47:20;;;;;;;15.40;5.40;;;103.30;2227.20;;;;;;6268758;22;20428;-78
2022/01/06 06:49:46;;;;;;;12.00;5.50;;;128.00;2252.80;;;;;;6260289;22;20000;-78
2022/01/06 06:52:12;;;;;;;11.07;4.95;;;103.30;2227.20;;;;;;6282497;22;20433;-76
2022/01/06 06:54:41;;;;;;;9.93;5.60;;;103.30;2227.20;;;;;;6281846;22;20023;-78
2022/01/06 06:57:08;;;;;;;9.93;5.57;;;128.00;2252.80;;;;;;6257853;22;20010;-77
2022/01/06 06:59:34;;;;;;;10.85;5.35;;;103.30;2227.20;;;;;;6251813;22;20011;-76
2022/01/06 07:02:00;;;;;;;12.63;5.40;;;128.00;2252.80;;;;;;6251335;22;20015;-77
2022/01/06 07:04:25;;;;;;;15.27;5.45;;;128.10;2252.80;;;;;;6279260;22;19999;-77
2022/01/06 07:06:51;;;;;;;13.63;5.50;;;128.00;2252.80;;;;;;6279510;22;20026;-76
2022/01/06 07:09:17;;;;;;;9.77;5.10;;;128.00;2252.80;;;;;;6255342;22;19999;-76
2022/01/06 07:11:43;;;;;;;14.98;8.90;;;103.30;2227.20;;;;;;6284909;22;20000;-77
2022/01/06 07:14:08;;;;;;;11.68;6.63;;;103.30;2227.20;;;;;;6288374;22;20018;-76
2022/01/06 07:16:34;;;;;;;12.30;6.10;;;128.00;2252.80;;;;;;6290549;22;20317;-77
2022/01/06 07:19:04;;;;;;;11.35;6.10;;;128.00;2252.80;;;;;;6265504;22;20004;-73
2022/01/06 07:21:52;;;;;;;14.43;5.47;;;128.00;2252.80;;;;;;6281366;22;20020;-76
2022/01/06 07:24:18;;;;;;;12.10;6.25;;;128.00;2252.80;;;;;;6283713;22;19995;-75
2022/01/06 07:26:50;;;;;;;13.95;5.88;;;128.00;2252.80;;;;;;6292151;22;20026;-77
2022/01/06 07:29:19;;;;;;;10.73;5.40;;;128.00;2252.80;;;;;;6263587;22;20030;-73
2022/01/06 07:31:44;;;;;;;9.73;5.20;;;128.00;2252.80;;;;;;6285043;22;20008;-74
2022/01/06 07:34:11;;;;;;;11.48;7.43;;;128.00;2252.80;;;;;;6288114;22;19991;-73
2022/01/06 07:36:37;;;;;;;13.32;5.30;;;128.00;2252.80;;;;;;6293446;22;20095;-76
2022/01/06 07:39:03;;;;;;;12.75;6.10;;;128.00;2252.80;;;;;;6289344;22;19999;-75
2022/01/06 07:41:29;;;;;;;11.35;5.78;;;128.10;2252.80;;;;;;6298460;22;19999;-74
2022/01/06 07:43:56;;;;;;;11.55;6.10;;;128.10;2252.80;;;;;;6290612;22;20000;-76
2022/01/06 07:46:22;;;;;;;12.27;5.75;;;128.00;2252.80;;;;;;6294875;22;20010;-77
2022/01/06 07:48:58;;;;;;;9.93;5.63;;;128.10;2252.80;;;;;;6266397;22;20031;-78
2022/01/06 07:51:27;;;;;;;11.38;5.72;;;128.00;2252.80;;;;;;6263098;22;20023;-75
2022/01/06 07:53:53;;;;;;;15.85;6.57;;;103.30;2227.20;;;;;;6289341;22;19999;-76
2022/01/06 07:56:20;;;;;;;15.50;9.40;;;128.00;2252.80;;;;;;6286389;22;20018;-74
2022/01/06 07:58:46;;;;;;;20.20;10.98;;;103.30;2227.20;;;;;;6286454;22;20002;-71
2022/01/06 08:01:13;;;;;;;24.05;13.65;;;128.00;2252.80;;;;;;6282832;22;20035;-76
2022/01/06 08:03:44;;;;;;;31.63;18.23;;;128.10;2252.80;;;;;;6291613;22;20131;-77
2022/01/06 08:06:11;;;;;;;17.48;9.98;;;128.10;2252.80;;;;;;6290410;22;20074;-73
2022/01/06 08:08:42;;;;;;;20.65;12.68;;;128.10;2252.80;;;;;;6288870;22;19999;-75
2022/01/06 08:11:07;;;;;;;23.60;13.68;;;128.10;2252.80;;;;;;6292242;22;20013;-74
2022/01/06 08:13:34;;;;;;;33.28;19.45;;;128.10;2252.80;;;;;;6292225;22;20004;-74
2022/01/06 08:15:59;;;;;;;30.83;16.55;;;128.10;2252.80;;;;;;6289911;22;19995;-77
2022/01/06 08:18:25;;;;;;;21.77;11.75;;;128.10;2252.80;;;;;;6262586;22;20014;-73
2022/01/06 08:20:51;;;;;;;19.98;10.57;;;128.10;2252.80;;;;;;6286348;22;20024;-73
2022/01/06 08:23:17;;;;;;;48.90;25.15;;;128.10;2252.80;;;;;;6292856;22;19976;-74
2022/01/06 08:25:43;;;;;;;22.45;11.90;;;128.10;2252.80;;;;;;6286790;22;20038;-75
2022/01/06 08:28:10;;;;;;;36.22;24.65;;;128.10;2252.80;;;;;;6282654;22;20035;-77
2022/01/06 08:30:38;;;;;;;42.55;20.55;;;128.10;2252.80;;;;;;6287648;22;20004;-74
2022/01/06 08:33:04;;;;;;;14.32;9.05;;;128.10;2252.80;;;;;;6249947;22;20086;-75
2022/01/06 08:35:30;;;;;;;13.27;7.82;;;128.10;2252.80;;;;;;6288080;22;20016;-75
2022/01/06 08:37:56;;;;;;;15.25;7.97;;;128.10;2252.80;;;;;;6262285;22;20012;-74
2022/01/06 08:40:22;;;;;;;14.60;7.35;;;128.10;2252.80;;;;;;6285994;22;20071;-75
2022/01/06 08:42:48;;;;;;;14.13;8.23;;;128.10;2252.80;;;;;;6287716;22;20041;-74
2022/01/06 08:45:18;;;;;;;26.17;10.80;;;128.10;2252.80;;;;;;6282988;22;20008;-73
2022/01/06 08:47:44;;;;;;;13.23;7.80;;;128.10;2252.80;;;;;;6284344;22;20361;-74
2022/01/06 08:50:13;;;;;;;17.85;7.45;;;128.20;2252.80;;;;;;6274422;22;20007;-76
2022/01/06 08:52:39;;;;;;;11.82;7.20;;;128.20;2252.80;;;;;;6287999;22;20011;-75
2022/01/06 08:55:08;;;;;;;15.43;7.30;;;128.00;2252.80;;;;;;6289557;22;20055;-74
2022/01/06 08:57:34;;;;;;;16.48;8.15;;;128.10;2252.80;;;;;;6290627;22;20490;-74
2022/01/06 09:00:00;;;;;;;13.07;6.70;;;128.10;2252.80;;;;;;6283863;22;20012;-73
2022/01/06 09:02:27;;;;;;;13.07;6.78;;;128.10;2252.80;;;;;;6277616;22;20007;-72
2022/01/06 09:04:55;;;;;;;15.23;7.55;;;128.00;2252.80;;;;;;6286808;22;19996;-74
2022/01/06 09:07:26;;;;;;;12.60;7.18;;;128.00;2252.80;;;;;;6289097;22;20004;-73
2022/01/06 09:09:58;;;;;;;16.38;6.93;;;128.00;2252.80;;;;;;6257676;22;19999;-74
2022/01/06 09:12:24;;;;;;;16.73;7.80;;;128.10;2252.80;;;;;;6261805;22;20000;-75
2022/01/06 09:14:50;;;;;;;12.65;7.63;;;128.00;2252.80;;;;;;6287073;22;20333;-72
2022/01/06 09:17:28;;;;;;;20.33;7.63;;;128.00;2252.80;;;;;;6286470;22;20003;-72
2022/01/06 09:19:54;;;;;;;15.02;8.02;;;128.00;2252.80;;;;;;6260790;22;20480;-71
2022/01/06 09:22:20;;;;;;;13.00;6.82;;;128.00;2252.80;;;;;;6293049;22;20011;-71
2022/01/06 09:24:47;;;;;;;12.88;7.38;;;103.30;2227.20;;;;;;6292678;22;20363;-72
2022/01/06 09:27:13;;;;;;;12.30;6.20;;;128.00;2252.80;;;;;;6292821;22;19980;-73
2022/01/06 09:29:39;;;;;;;12.60;5.75;;;103.30;2227.20;;;;;;6290353;22;20004;-76
2022/01/06 09:32:05;;;;;;;11.45;6.20;;;103.20;2227.20;;;;;;6289359;22;20000;-75
2022/01/06 09:34:31;;;;;;;13.30;7.70;;;103.30;2227.20;;;;;;6264681;22;20026;-71
2022/01/06 09:36:56;;;;;;;10.98;6.55;;;103.30;2227.20;;;;;;6291931;22;20008;-72
2022/01/06 09:39:26;;;;;;;15.07;7.78;;;103.30;2227.20;;;;;;6289554;22;20011;-75
2022/01/06 09:41:51;;;;;;;13.07;7.10;;;103.30;2227.20;;;;;;6265475;22;20031;-78
2022/01/06 09:44:18;;;;;;;14.93;7.78;;;103.20;2227.20;;;;;;6292942;22;20007;-75
2022/01/06 09:46:44;;;;;;;13.05;7.38;;;103.30;2227.20;;;;;;6290817;22;19996;-76
2022/01/06 09:49:10;;;;;;;38.85;21.20;;;103.30;2227.20;;;;;;6292032;22;20022;-76
2022/01/06 09:51:36;;;;;;;12.57;7.80;;;103.20;2227.20;;;;;;6288406;22;20023;-75
2022/01/06 09:54:07;;;;;;;15.25;9.55;;;103.20;2227.20;;;;;;6286414;22;20006;-74
2022/01/06 09:56:37;;;;;;;25.20;16.42;;;103.10;2227.20;;;;;;6285086;22;20004;-74
2022/01/06 09:59:03;;;;;;;21.42;13.15;;;103.00;2227.20;;;;;;6288403;22;20317;-77
2022/01/06 10:01:30;;;;;;;18.83;11.63;;;;;;;;;;6280992;22;20023;-74
2022/01/06 10:03:56;;;;;;;18.25;10.90;;;;;;;;;;6283375;22;20325;-75
2022/01/06 10:06:28;;;;;;;12.07;7.43;;;;;;;;;;6291413;22;20046;-72
2022/01/06 10:09:04;;;;;;;14.90;7.85;;;;;;;;;;6277596;22;19995;-71
2022/01/06 10:11:32;;;;;;;13.13;7.25;;;;;;;;;;6251538;22;20015;-73
2022/01/06 10:14:20;;;;;;;15.45;9.88;;;;;;;;;;6250585;22;20003;-72
2022/01/06 10:16:50;;;;;;;15.45;7.85;;;;;;;;;;6279997;22;20010;-73
2022/01/06 10:19:16;;;;;;;12.48;8.07;;;;;;;;;;6281792;22;20007;-74
2022/01/06 10:21:42;;;;;;;15.68;9.15;;;;;;;;;;6280049;22;20007;-72
2022/01/06 10:24:10;;;;;;;16.02;10.02;;;;;;;;;;6291193;22;20436;-76
2022/01/06 10:26:36;;;;;;;16.08;10.00;;;;;;;;;;6294305;22;20004;-71
2022/01/06 10:29:04;;;;;;;20.33;10.43;;;;;;;;;;6290336;22;20491;-75
2022/01/06 10:31:30;;;;;;;19.02;10.45;;;;;;;;;;6265235;22;20011;-72
2022/01/06 10:33:57;;;;;;;16.17;10.73;;;;;;;;;;6292818;22;20064;-72
2022/01/06 10:36:28;;;;;;;17.50;9.63;;;;;;;;;;6293892;22;20019;-73
2022/01/06 10:38:55;;;;;;;15.60;9.52;;;;;;;;;;6291727;22;20058;-70
2022/01/06 10:41:21;;;;;;;18.90;10.85;;;;;;;;;;6290225;22;20012;-76
2022/01/06 10:43:58;;;;;;;21.50;12.57;;;;;;;;;;6259349;22;20010;-72
2022/01/06 10:46:28;;;;;;;23.30;13.50;;;;;;;;;;6289738;22;20010;-73
2022/01/06 10:49:01;;;;;;;25.10;14.05;;;;;;;;;;6291661;22;20000;-70
2022/01/06 10:51:41;;;;;;;15.17;10.50;;;;;;;;;;6291770;22;20030;-73
2022/01/06 10:54:14;;;;;;;14.40;9.20;;;;;;;;;;6261602;22;20007;-71
2022/01/06 10:56:40;;;;;;;15.23;8.97;;;;;;;;;;6254598;22;20000;-75
2022/01/06 10:59:06;;;;;;;15.23;9.68;;;;;;;;;;6276207;22;20004;-73
2022/01/06 11:01:34;;;;;;;13.43;8.07;;;;;;;;;;6277513;22;20473;-74
2022/01/06 11:04:00;;;;;;;13.00;7.50;;;;;;;;;;6277543;22;20417;-75
2022/01/06 11:06:26;;;;;;;15.48;7.43;;;;;;;;;;6277226;22;20012;-75
2022/01/06 11:08:52;;;;;;;13.23;7.93;;;;;;;;;;6249822;22;20003;-76
2022/01/06 11:14:09;;;;;;;12.77;8.05;;;;;;;;;;6183647;23;20236;-73
2022/01/06 11:16:35;;;;;;;12.05;7.32;;;;;;;;;;6157999;23;20037;-72
2022/01/06 11:19:01;;;;;;;15.80;7.97;;;;;;;;;;6158134;23;20009;-77
2022/01/06 11:21:40;;;;;;;17.63;9.00;;;;;;;;;;6160201;23;20391;-77
2022/01/06 11:24:20;;;;;;;17.98;12.18;;;;;;;;;;6188666;23;20001;-73
2022/01/06 11:27:06;;;;;;;23.95;14.68;;;;;;;;;;6160007;23;20040;-74
2022/01/06 11:29:40;;;;;;;28.52;15.95;;;;;;;;;;6184209;23;20059;-74
2022/01/06 11:32:28;;;;;;;14.02;8.98;;;;;;;;;;6157350;23;20008;-77
2022/01/06 11:35:02;;;;;;;13.65;8.10;;;;;;;;;;6073010;23;20018;-74
2022/01/06 11:37:38;;;;;;;17.17;8.52;;;;;;;;;;6049970;23;20022;-76
2022/01/06 11:40:04;;;;;;;22.08;13.32;;;;;;;;;;6072970;23;20015;-72
2022/01/06 11:42:30;;;;;;;25.60;14.73;;;;;;;;;;6075129;23;20003;-73
2022/01/06 11:44:58;;;;;;;18.17;10.68;;;;;;;;;;6051124;23;20007;-71
2022/01/06 11:47:34;;;;;;;23.23;14.38;;;;;;;;;;6085526;23;20051;-71
2022/01/06 11:50:06;;;;;;;17.15;10.68;;;;;;;;;;6084138;23;20025;-72
2022/01/06 11:52:33;;;;;;;11.32;7.63;;;;;;;;;;6106968;23;20029;-71
2022/01/06 11:54:59;;;;;;;23.48;13.25;;;;;;;;;;6094395;23;20409;-71
2022/01/06 11:57:29;;;;;;;23.50;15.05;;;;;;;;;;6094769;23;20461;-72
2022/01/06 11:59:55;;;;;;;11.00;6.88;;;;;;;;;;6094097;23;20033;-71
2022/01/06 12:02:22;;;;;;;12.13;8.65;;;;;;;;;;6093840;23;20010;-73
2022/01/06 12:04:55;;;;;;;15.90;7.72;;;;;;;;;;6096678;23;20014;-76
2022/01/06 12:07:21;;;;;;;13.05;7.05;;;;;;;;;;6103462;23;20014;-74
2022/01/06 12:09:55;;;;;;;8.73;6.10;;;;;;;;;;6093336;23;20006;-73
2022/01/06 12:12:31;;;;;;;9.75;6.03;;;;;;;;;;6216160;22;20330;-73
2022/01/06 12:15:27;;;;;;;14.05;8.38;;;;;;;;;;6275921;22;20034;-73
2022/01/06 12:17:56;;;;;;;11.35;6.78;;;;;;;;;;6129780;23;20416;-72
2022/01/06 12:20:24;;;;;;;14.98;9.25;;;;;;;;;;6112105;23;20546;-73
2022/01/06 12:22:50;;;;;;;13.38;7.60;;;;;;;;;;6138991;23;20013;-73
2022/01/06 12:25:16;;;;;;;15.02;7.15;;;;;;;;;;6136782;23;20017;-76
2022/01/06 12:27:48;;;;;;;12.55;7.50;;;;;;;;;;6125444;23;20006;-75
2022/01/06 12:30:14;;;;;;;13.02;7.80;;;;;;;;;;6128449;23;20014;-73
2022/01/06 12:32:40;;;;;;;16.83;6.82;;;;;;;;;;6134675;23;20028;-73
2022/01/06 12:35:07;;;;;;;13.73;7.18;;;;;;;;;;6133686;23;20090;-72
2022/01/06 12:37:33;;;;;;;15.35;9.68;;;;;;;;;;6135631;23;20022;-71
2022/01/06 12:40:00;;;;;;;22.63;8.35;;;;;;;;;;6136989;23;20010;-72
2022/01/06 12:42:26;;;;;;;18.85;7.95;;;;;;;;;;6135707;23;20045;-74
2022/01/06 12:44:53;;;;;;;17.27;9.15;;;;;;;;;;6134475;23;20090;-73
2022/01/06 12:47:22;;;;;;;25.73;13.13;;;;;;;;;;6125807;23;20010;-74
2022/01/06 12:49:48;;;;;;;17.20;9.02;;;;;;;;;;6106849;23;20061;-73
2022/01/06 12:52:14;;;;;;;15.95;9.10;;;;;;;;;;6135416;23;20014;-73
2022/01/06 12:54:43;;;;;;;14.90;8.98;;;;;;;;;;6230668;22;20000;-75
2022/01/06 12:57:11;;;;;;;15.98;9.95;;;;;;;;;;6279636;22;20003;-73
2022/01/06 12:59:39;;;;;;;23.73;12.38;;;;;;;;;;6260433;22;20055;-79
2022/01/06 13:02:10;;;;;;;18.55;10.30;;;;;;;;;;6263699;22;20445;-76
2022/01/06 13:04:38;;;;;;;17.27;9.15;;;;;;;;;;6281568;22;20385;-76
2022/01/06 13:07:05;;;;;;;18.33;10.27;;;;;;;;;;6286177;22;20762;-76
2022/01/06 13:09:33;;;;;;;27.38;14.18;;;;;;;;;;6254849;22;20026;-77
2022/01/06 13:12:00;;;;;;;20.08;11.20;;;;;;;;;;6263885;22;20383;-77
2022/01/06 13:14:31;;;;;;;15.35;9.00;;;;;;;;;;6262361;22;20004;-78
2022/01/06 13:17:08;;;;;;;34.55;17.65;;;;;;;;;;6295983;22;20010;-76
2022/01/06 13:19:58;;;;;;;56.65;25.15;;;;;;;;;;6297265;22;20011;-77
2022/01/06 13:23:41;;;;;;;26.10;14.70;;;;;;;;;;6242464;22;20053;-74
2022/01/06 13:25:25;;;;;;;24.45;12.75;;;;;;;;;;6281927;22;20014;-74
2022/01/06 13:28:09;;;;;;;19.50;11.20;;;;;;;;;;6292458;22;19996;-74
2022/01/06 13:30:40;;;;;;;20.23;11.50;;;;;;;;;;6265146;22;20330;-77
2022/01/06 13:33:07;;;;;;;16.52;9.00;;;;;;;;;;6289066;22;20000;-74
2022/01/06 13:35:33;;;;;;;18.88;10.63;;;;;;;;;;6290458;22;20038;-73
2022/01/06 13:38:02;;;;;;;15.07;9.52;;;;;;;;;;6264457;22;20062;-73
2022/01/06 13:40:28;;;;;;;17.15;10.60;;;;;;;;;;6295689;22;20003;-74
2022/01/06 13:42:55;;;;;;;14.05;8.68;;;;;;;;;;6268190;22;20003;-73
2022/01/06 13:45:31;;;;;;;17.50;8.30;;;;;;;;;;6270257;22;20010;-74
2022/01/06 13:48:03;;;;;;;14.73;7.78;;;;;;;;;;6268099;22;20057;-74
2022/01/06 13:53:42;;;;;;;14.27;9.15;;;;;;;;;;6297152;22;20015;-74
2022/01/06 13:56:08;;;;;;;11.57;6.47;;;;;;;;;;6263068;22;20008;-75
2022/01/06 13:58:36;;;;;;;14.70;7.13;;;;;;;;;;6295425;22;20003;-75
2022/01/06 14:01:03;;;;;;;14.05;7.13;;;;;;;;;;6294517;22;20008;-74
2022/01/06 14:03:31;;;;;;;12.63;7.18;;;;;;;;;;6296024;22;20021;-73
2022/01/06 14:06:08;;;;;;;13.30;8.63;;;;;;;;;;6267568;22;20004;-74
2022/01/06 14:08:34;;;;;;;19.90;8.70;;;;;;;;;;6293361;22;20003;-74
2022/01/06 14:11:01;;;;;;;16.63;9.77;;;;;;;;;;6263822;22;20003;-74
2022/01/06 14:13:27;;;;;;;11.13;6.88;;;;;;;;;;6294535;22;20000;-73
2022/01/06 14:15:54;;;;;;;14.05;7.22;;;;;;;;;;6294249;22;20078;-75
2022/01/06 14:18:20;;;;;;;12.25;7.28;;;;;;;;;;6291389;22;20049;-76
2022/01/06 14:20:46;;;;;;;18.27;7.75;;;;;;;;;;6263074;22;20472;-77